sensor_id;sensor_type;location;lat;lon;timestamp;temperature;humidity
52471;DHT22;38382;53.160;7.026;2023-03-01T00:01:30;-1.60;99.90
52471;DHT22;38382;53.160;7.026;2023-03-01T00:03:57;-0.50;99.90
52471;DHT22;38382;53.160;7.026;2023-03-01T00:06:23;-1.50;99.90
52471;DHT22;38382;53.160;7.026;2023-03-01T00:08:49;0.00;99.90
52471;DHT22;38382;53.160;7.026;2023-03-01T00:11:19;-0.60;99.90
52471;DHT22;38382;53.160;7.026;2023-03-01T00:13:46;-1.50;99.90
52471;DHT22;38382;53.160;7.026;2023-03-01T00:16:18;-1.60;99.90
52471;DHT22;38382;53.160;7.026;2023-03-01T00:18:44;-0.50;99.90
52471;DHT22;38382;53.160;7.026;2023-03-01T00:21:10;-1.60;99.90
52471;DHT22;38382;53.160;7.026;2023-03-01T00:23:37;-0.30;99.90
52471;DHT22;38382;53.160;7.026;2023-03-01T00:26:07;-1.10;99.90
52471;DHT22;38382;53.160;7.026;2023-03-01T00:28:33;-0.40;99.90
52471;DHT22;38382;53.160;7.026;2023-03-01T00:31:08;-0.20;99.90
52471;DHT22;38382;53.160;7.026;2023-03-01T00:33:34;-0.50;99.90
52471;DHT22;38382;53.160;7.026;2023-03-01T00:36:00;0.00;99.90
52471;DHT22;38382;53.160;7.026;2023-03-01T00:38:26;-0.80;99.90
52471;DHT22;38382;53.160;7.026;2023-03-01T00:40:52;-1.60;99.90
52471;DHT22;38382;53.160;7.026;2023-03-01T00:43:18;-1.60;99.90
52471;DHT22;38382;53.160;7.026;2023-03-01T00:45:44;-1.30;99.90
52471;DHT22;38382;53.160;7.026;2023-03-01T00:48:10;-1.60;99.90
52471;DHT22;38382;53.160;7.026;2023-03-01T00:50:36;-0.20;99.90
52471;DHT22;38382;53.160;7.026;2023-03-01T00:53:02;-1.70;99.90
52471;DHT22;38382;53.160;7.026;2023-03-01T00:55:28;-1.20;99.90
52471;DHT22;38382;53.160;7.026;2023-03-01T00:57:54;-1.80;99.90
52471;DHT22;38382;53.160;7.026;2023-03-01T01:00:20;-1.80;99.90
52471;DHT22;38382;53.160;7.026;2023-03-01T01:02:46;-1.80;99.90
52471;DHT22;38382;53.160;7.026;2023-03-01T01:05:12;-1.80;99.90
52471;DHT22;38382;53.160;7.026;2023-03-01T01:07:38;-0.20;99.90
52471;DHT22;38382;53.160;7.026;2023-03-01T01:10:04;-1.90;99.90
52471;DHT22;38382;53.160;7.026;2023-03-01T01:12:31;-1.90;99.90
52471;DHT22;38382;53.160;7.026;2023-03-01T01:14:57;-1.90;99.90
52471;DHT22;38382;53.160;7.026;2023-03-01T01:17:22;-1.90;99.90
52471;DHT22;38382;53.160;7.026;2023-03-01T01:19:48;-0.50;99.90
52471;DHT22;38382;53.160;7.026;2023-03-01T01:22:14;-0.90;99.90
52471;DHT22;38382;53.160;7.026;2023-03-01T01:24:40;-2.00;99.90
52471;DHT22;38382;53.160;7.026;2023-03-01T01:27:05;-0.90;99.90
52471;DHT22;38382;53.160;7.026;2023-03-01T01:29:32;-1.60;99.90
52471;DHT22;38382;53.160;7.026;2023-03-01T01:31:58;-2.00;99.90
52471;DHT22;38382;53.160;7.026;2023-03-01T01:34:24;-1.00;99.90
52471;DHT22;38382;53.160;7.026;2023-03-01T01:36:53;-2.00;99.90
52471;DHT22;38382;53.160;7.026;2023-03-01T01:39:20;-1.60;99.90
52471;DHT22;38382;53.160;7.026;2023-03-01T01:41:46;-0.50;99.90
52471;DHT22;38382;53.160;7.026;2023-03-01T01:44:21;-0.80;99.90
52471;DHT22;38382;53.160;7.026;2023-03-01T01:54:40;-2.20;99.90
52471;DHT22;38382;53.160;7.026;2023-03-01T01:57:12;-2.30;99.90
52471;DHT22;38382;53.160;7.026;2023-03-01T01:59:41;-2.20;99.90
52471;DHT22;38382;53.160;7.026;2023-03-01T02:02:08;-0.90;99.90
52471;DHT22;38382;53.160;7.026;2023-03-01T02:04:35;-2.30;99.90
52471;DHT22;38382;53.160;7.026;2023-03-01T02:07:14;-2.30;99.90
52471;DHT22;38382;53.160;7.026;2023-03-01T02:09:45;-2.30;99.90
52471;DHT22;38382;53.160;7.026;2023-03-01T02:12:13;-0.60;99.90
52471;DHT22;38382;53.160;7.026;2023-03-01T02:14:39;-2.30;99.90
52471;DHT22;38382;53.160;7.026;2023-03-01T02:17:05;-2.20;99.90
52471;DHT22;38382;53.160;7.026;2023-03-01T02:22:28;-1.80;99.90
52471;DHT22;38382;53.160;7.026;2023-03-01T02:25:07;-2.30;99.90
52471;DHT22;38382;53.160;7.026;2023-03-01T02:27:59;-2.30;99.90
52471;DHT22;38382;53.160;7.026;2023-03-01T02:30:29;-2.30;99.90
52471;DHT22;38382;53.160;7.026;2023-03-01T02:32:57;-2.40;99.90
52471;DHT22;38382;53.160;7.026;2023-03-01T02:35:38;-2.40;99.90
52471;DHT22;38382;53.160;7.026;2023-03-01T02:38:07;-1.40;99.90
52471;DHT22;38382;53.160;7.026;2023-03-01T02:40:35;-1.00;99.90
52471;DHT22;38382;53.160;7.026;2023-03-01T02:43:06;-2.50;99.90
52471;DHT22;38382;53.160;7.026;2023-03-01T02:45:33;-1.10;99.90
52471;DHT22;38382;53.160;7.026;2023-03-01T02:47:59;-2.60;99.90
52471;DHT22;38382;53.160;7.026;2023-03-01T02:55:28;-2.00;99.90
52471;DHT22;38382;53.160;7.026;2023-03-01T02:57:55;-1.80;99.90
52471;DHT22;38382;53.160;7.026;2023-03-01T03:00:24;-0.90;99.90
52471;DHT22;38382;53.160;7.026;2023-03-01T03:02:53;-2.60;99.90
52471;DHT22;38382;53.160;7.026;2023-03-01T03:05:25;-2.00;99.90
52471;DHT22;38382;53.160;7.026;2023-03-01T03:07:51;-2.60;99.90
52471;DHT22;38382;53.160;7.026;2023-03-01T03:10:22;-0.70;99.90
52471;DHT22;38382;53.160;7.026;2023-03-01T03:12:51;-2.60;99.90
52471;DHT22;38382;53.160;7.026;2023-03-01T03:15:18;-2.70;99.90
52471;DHT22;38382;53.160;7.026;2023-03-01T03:17:44;-2.70;99.90
52471;DHT22;38382;53.160;7.026;2023-03-01T03:20:11;-2.70;99.90
52471;DHT22;38382;53.160;7.026;2023-03-01T03:22:39;-1.10;99.90
52471;DHT22;38382;53.160;7.026;2023-03-01T03:25:08;-2.80;99.90
52471;DHT22;38382;53.160;7.026;2023-03-01T03:27:43;-2.80;99.90
52471;DHT22;38382;53.160;7.026;2023-03-01T03:30:11;-2.20;99.90
52471;DHT22;38382;53.160;7.026;2023-03-01T03:32:39;-2.80;99.90
52471;DHT22;38382;53.160;7.026;2023-03-01T03:35:07;-2.80;99.90
52471;DHT22;38382;53.160;7.026;2023-03-01T03:37:40;-2.80;99.90
52471;DHT22;38382;53.160;7.026;2023-03-01T03:40:25;-2.90;99.90
52471;DHT22;38382;53.160;7.026;2023-03-01T03:42:51;-2.90;99.90
52471;DHT22;38382;53.160;7.026;2023-03-01T03:45:18;-2.90;99.90
52471;DHT22;38382;53.160;7.026;2023-03-01T03:47:44;-2.90;99.90
52471;DHT22;38382;53.160;7.026;2023-03-01T03:50:11;-2.90;99.90
52471;DHT22;38382;53.160;7.026;2023-03-01T03:52:37;-2.90;99.90
52471;DHT22;38382;53.160;7.026;2023-03-01T03:55:04;-2.90;99.90
52471;DHT22;38382;53.160;7.026;2023-03-01T03:57:35;-3.00;99.90
52471;DHT22;38382;53.160;7.026;2023-03-01T04:00:01;-3.00;99.90
52471;DHT22;38382;53.160;7.026;2023-03-01T04:02:30;-3.00;99.90
52471;DHT22;38382;53.160;7.026;2023-03-01T04:04:55;-3.00;99.90
52471;DHT22;38382;53.160;7.026;2023-03-01T04:07:21;-3.10;99.90
52471;DHT22;38382;53.160;7.026;2023-03-01T04:09:47;-1.30;99.90
52471;DHT22;38382;53.160;7.026;2023-03-01T04:12:13;-2.00;99.90
52471;DHT22;38382;53.160;7.026;2023-03-01T04:14:38;-1.70;99.90
52471;DHT22;38382;53.160;7.026;2023-03-01T04:17:04;-3.10;99.90
52471;DHT22;38382;53.160;7.026;2023-03-01T04:19:31;-3.10;99.90
52471;DHT22;38382;53.160;7.026;2023-03-01T04:22:04;-3.10;99.90
52471;DHT22;38382;53.160;7.026;2023-03-01T04:24:37;-1.90;99.90
52471;DHT22;38382;53.160;7.026;2023-03-01T04:27:03;-3.10;99.90
52471;DHT22;38382;53.160;7.026;2023-03-01T04:29:29;-3.10;99.90
52471;DHT22;38382;53.160;7.026;2023-03-01T04:31:55;-3.10;99.90
52471;DHT22;38382;53.160;7.026;2023-03-01T04:34:21;-3.20;99.90
52471;DHT22;38382;53.160;7.026;2023-03-01T04:36:46;-3.10;99.90
52471;DHT22;38382;53.160;7.026;2023-03-01T04:39:12;-2.10;99.90
52471;DHT22;38382;53.160;7.026;2023-03-01T04:41:38;-3.20;99.90
52471;DHT22;38382;53.160;7.026;2023-03-01T04:44:05;-3.30;99.90
52471;DHT22;38382;53.160;7.026;2023-03-01T04:46:31;-2.70;99.90
52471;DHT22;38382;53.160;7.026;2023-03-01T04:48:57;-3.30;99.90
52471;DHT22;38382;53.160;7.026;2023-03-01T04:51:22;-3.30;99.90
52471;DHT22;38382;53.160;7.026;2023-03-01T04:53:49;-3.50;99.90
52471;DHT22;38382;53.160;7.026;2023-03-01T04:56:15;-3.20;99.90
52471;DHT22;38382;53.160;7.026;2023-03-01T04:58:41;-2.40;99.90
52471;DHT22;38382;53.160;7.026;2023-03-01T05:01:16;-3.40;99.90
52471;DHT22;38382;53.160;7.026;2023-03-01T05:03:47;-3.20;99.90
52471;DHT22;38382;53.160;7.026;2023-03-01T05:06:14;-3.20;99.90
52471;DHT22;38382;53.160;7.026;2023-03-01T05:08:41;-3.20;99.90
52471;DHT22;38382;53.160;7.026;2023-03-01T05:11:08;-3.40;99.90
52471;DHT22;38382;53.160;7.026;2023-03-01T05:13:36;-1.30;99.90
52471;DHT22;38382;53.160;7.026;2023-03-01T05:16:03;-1.30;99.90
52471;DHT22;38382;53.160;7.026;2023-03-01T05:18:31;-3.30;99.90
52471;DHT22;38382;53.160;7.026;2023-03-01T05:21:24;-3.30;99.90
52471;DHT22;38382;53.160;7.026;2023-03-01T05:23:49;-1.60;99.90
52471;DHT22;38382;53.160;7.026;2023-03-01T05:26:17;-1.80;99.90
52471;DHT22;38382;53.160;7.026;2023-03-01T05:28:43;-3.30;99.90
52471;DHT22;38382;53.160;7.026;2023-03-01T05:31:09;-3.30;99.90
52471;DHT22;38382;53.160;7.026;2023-03-01T05:33:39;-3.20;99.90
52471;DHT22;38382;53.160;7.026;2023-03-01T05:36:11;-2.10;99.90
52471;DHT22;38382;53.160;7.026;2023-03-01T05:38:37;-2.80;99.90
52471;DHT22;38382;53.160;7.026;2023-03-01T05:41:03;-3.40;99.90
52471;DHT22;38382;53.160;7.026;2023-03-01T05:43:32;-3.40;99.90
52471;DHT22;38382;53.160;7.026;2023-03-01T05:46:00;-3.50;99.90
52471;DHT22;38382;53.160;7.026;2023-03-01T05:48:26;-3.50;99.90
52471;DHT22;38382;53.160;7.026;2023-03-01T05:50:52;-3.50;99.90
52471;DHT22;38382;53.160;7.026;2023-03-01T05:53:19;-3.50;99.90
52471;DHT22;38382;53.160;7.026;2023-03-01T05:55:48;-3.50;99.90
52471;DHT22;38382;53.160;7.026;2023-03-01T05:58:18;-3.50;99.90
52471;DHT22;38382;53.160;7.026;2023-03-01T06:00:46;-3.50;99.90
52471;DHT22;38382;53.160;7.026;2023-03-01T06:03:15;-2.50;99.90
52471;DHT22;38382;53.160;7.026;2023-03-01T06:05:42;-1.90;99.90
52471;DHT22;38382;53.160;7.026;2023-03-01T06:08:09;-3.20;99.90
52471;DHT22;38382;53.160;7.026;2023-03-01T06:10:36;-3.50;99.90
52471;DHT22;38382;53.160;7.026;2023-03-01T06:13:02;-3.50;99.90
52471;DHT22;38382;53.160;7.026;2023-03-01T06:15:27;-3.60;99.90
52471;DHT22;38382;53.160;7.026;2023-03-01T06:17:55;-1.90;99.90
52471;DHT22;38382;53.160;7.026;2023-03-01T06:20:25;-3.10;99.90
52471;DHT22;38382;53.160;7.026;2023-03-01T06:22:51;-1.70;99.90
52471;DHT22;38382;53.160;7.026;2023-03-01T06:25:20;-3.60;99.90
52471;DHT22;38382;53.160;7.026;2023-03-01T06:27:46;-3.70;99.90
52471;DHT22;38382;53.160;7.026;2023-03-01T06:30:16;-3.30;99.90
52471;DHT22;38382;53.160;7.026;2023-03-01T06:32:42;-3.60;99.90
52471;DHT22;38382;53.160;7.026;2023-03-01T06:35:13;-3.60;99.90
52471;DHT22;38382;53.160;7.026;2023-03-01T06:37:40;-3.60;99.90
52471;DHT22;38382;53.160;7.026;2023-03-01T06:40:07;-3.50;99.90
52471;DHT22;38382;53.160;7.026;2023-03-01T06:42:37;-3.50;99.90
52471;DHT22;38382;53.160;7.026;2023-03-01T06:45:05;-3.50;99.90
52471;DHT22;38382;53.160;7.026;2023-03-01T06:47:31;-3.40;99.90
52471;DHT22;38382;53.160;7.026;2023-03-01T06:49:59;-3.40;99.90
52471;DHT22;38382;53.160;7.026;2023-03-01T06:52:25;-1.70;99.90
52471;DHT22;38382;53.160;7.026;2023-03-01T06:54:51;-3.20;99.90
52471;DHT22;38382;53.160;7.026;2023-03-01T06:57:16;-3.20;99.90
52471;DHT22;38382;53.160;7.026;2023-03-01T06:59:42;-2.00;99.90
52471;DHT22;38382;53.160;7.026;2023-03-01T07:02:12;-1.50;99.90
52471;DHT22;38382;53.160;7.026;2023-03-01T07:04:38;-3.00;99.90
52471;DHT22;38382;53.160;7.026;2023-03-01T07:07:05;-2.90;99.90
52471;DHT22;38382;53.160;7.026;2023-03-01T07:09:30;-2.80;99.90
52471;DHT22;38382;53.160;7.026;2023-03-01T07:11:57;-1.00;99.90
52471;DHT22;38382;53.160;7.026;2023-03-01T07:14:23;-2.70;99.90
52471;DHT22;38382;53.160;7.026;2023-03-01T07:16:52;-2.60;99.90
52471;DHT22;38382;53.160;7.026;2023-03-01T07:19:19;-2.50;99.90
52471;DHT22;38382;53.160;7.026;2023-03-01T07:21:44;-2.40;99.90
52471;DHT22;38382;53.160;7.026;2023-03-01T07:24:10;-2.30;99.90
52471;DHT22;38382;53.160;7.026;2023-03-01T07:26:36;-2.20;99.90
52471;DHT22;38382;53.160;7.026;2023-03-01T07:29:06;-0.50;99.90
52471;DHT22;38382;53.160;7.026;2023-03-01T07:31:32;-0.50;99.90
52471;DHT22;38382;53.160;7.026;2023-03-01T07:33:58;-1.90;99.90
52471;DHT22;38382;53.160;7.026;2023-03-01T07:36:24;-0.80;99.90
52471;DHT22;38382;53.160;7.026;2023-03-01T07:38:51;-0.40;99.90
52471;DHT22;38382;53.160;7.026;2023-03-01T07:41:16;-1.40;99.90
52471;DHT22;38382;53.160;7.026;2023-03-01T07:43:42;-1.40;99.90
52471;DHT22;38382;53.160;7.026;2023-03-01T07:46:08;-1.20;99.90
52471;DHT22;38382;53.160;7.026;2023-03-01T07:48:34;-1.10;99.90
52471;DHT22;38382;53.160;7.026;2023-03-01T07:51:01;-1.00;99.90
52471;DHT22;38382;53.160;7.026;2023-03-01T07:53:27;-0.90;99.90
52471;DHT22;38382;53.160;7.026;2023-03-01T07:56:08;0.20;99.90
52471;DHT22;38382;53.160;7.026;2023-03-01T07:58:35;-0.80;99.90
52471;DHT22;38382;53.160;7.026;2023-03-01T08:01:03;-0.70;99.90
52471;DHT22;38382;53.160;7.026;2023-03-01T08:03:29;-0.60;99.90
52471;DHT22;38382;53.160;7.026;2023-03-01T08:05:55;-0.10;99.90
52471;DHT22;38382;53.160;7.026;2023-03-01T08:08:21;0.40;99.90
52471;DHT22;38382;53.160;7.026;2023-03-01T08:10:47;0.80;99.90
52471;DHT22;38382;53.160;7.026;2023-03-01T08:13:12;1.10;99.90
52471;DHT22;38382;53.160;7.026;2023-03-01T08:15:38;0.70;99.90
52471;DHT22;38382;53.160;7.026;2023-03-01T08:18:04;-0.60;99.90
52471;DHT22;38382;53.160;7.026;2023-03-01T08:20:29;-0.60;99.90
52471;DHT22;38382;53.160;7.026;2023-03-01T08:22:57;0.60;99.90
52471;DHT22;38382;53.160;7.026;2023-03-01T08:25:23;-0.50;99.90
52471;DHT22;38382;53.160;7.026;2023-03-01T08:27:49;-0.30;99.90
52471;DHT22;38382;53.160;7.026;2023-03-01T08:30:15;-0.30;99.90
52471;DHT22;38382;53.160;7.026;2023-03-01T08:32:41;-0.20;99.90
52471;DHT22;38382;53.160;7.026;2023-03-01T08:35:07;-0.10;99.90
52471;DHT22;38382;53.160;7.026;2023-03-01T08:37:33;0.00;99.90
52471;DHT22;38382;53.160;7.026;2023-03-01T08:39:59;0.10;99.90
52471;DHT22;38382;53.160;7.026;2023-03-01T08:42:26;0.10;99.90
52471;DHT22;38382;53.160;7.026;2023-03-01T08:44:51;1.40;99.90
52471;DHT22;38382;53.160;7.026;2023-03-01T08:47:17;1.30;99.90
52471;DHT22;38382;53.160;7.026;2023-03-01T08:49:43;0.50;99.90
52471;DHT22;38382;53.160;7.026;2023-03-01T08:52:09;0.60;99.90
52471;DHT22;38382;53.160;7.026;2023-03-01T08:54:34;0.80;99.90
52471;DHT22;38382;53.160;7.026;2023-03-01T08:57:03;0.90;99.90
52471;DHT22;38382;53.160;7.026;2023-03-01T08:59:29;1.10;99.90
52471;DHT22;38382;53.160;7.026;2023-03-01T09:01:55;1.20;99.90
52471;DHT22;38382;53.160;7.026;2023-03-01T09:04:21;1.90;99.90
52471;DHT22;38382;53.160;7.026;2023-03-01T09:06:47;1.40;99.90
52471;DHT22;38382;53.160;7.026;2023-03-01T09:09:15;1.50;99.90
52471;DHT22;38382;53.160;7.026;2023-03-01T09:11:42;2.80;99.90
52471;DHT22;38382;53.160;7.026;2023-03-01T09:14:09;2.40;99.90
52471;DHT22;38382;53.160;7.026;2023-03-01T09:16:35;1.80;99.90
52471;DHT22;38382;53.160;7.026;2023-03-01T09:19:02;2.20;99.90
52471;DHT22;38382;53.160;7.026;2023-03-01T09:21:28;2.00;99.90
52471;DHT22;38382;53.160;7.026;2023-03-01T09:23:55;2.10;99.90
52471;DHT22;38382;53.160;7.026;2023-03-01T09:26:22;3.40;99.90
52471;DHT22;38382;53.160;7.026;2023-03-01T09:28:50;2.30;99.90
52471;DHT22;38382;53.160;7.026;2023-03-01T09:31:18;3.50;99.90
52471;DHT22;38382;53.160;7.026;2023-03-01T09:33:47;2.80;99.90
52471;DHT22;38382;53.160;7.026;2023-03-01T09:36:16;2.90;99.90
52471;DHT22;38382;53.160;7.026;2023-03-01T09:38:43;3.10;99.90
52471;DHT22;38382;53.160;7.026;2023-03-01T09:41:17;4.30;99.90
52471;DHT22;38382;53.160;7.026;2023-03-01T09:43:55;3.50;99.90
52471;DHT22;38382;53.160;7.026;2023-03-01T09:46:24;4.10;99.90
52471;DHT22;38382;53.160;7.026;2023-03-01T09:51:32;4.50;99.90
52471;DHT22;38382;53.160;7.026;2023-03-01T09:54:04;4.50;99.90
52471;DHT22;38382;53.160;7.026;2023-03-01T09:56:38;4.70;99.90
52471;DHT22;38382;53.160;7.026;2023-03-01T10:04:28;5.30;99.90
52471;DHT22;38382;53.160;7.026;2023-03-01T10:09:43;5.80;99.90
52471;DHT22;38382;53.160;7.026;2023-03-01T10:12:14;5.80;99.90
52471;DHT22;38382;53.160;7.026;2023-03-01T10:15:22;6.10;99.90
52471;DHT22;38382;53.160;7.026;2023-03-01T10:17:47;6.30;99.90
52471;DHT22;38382;53.160;7.026;2023-03-01T10:23:08;6.60;99.90
52471;DHT22;38382;53.160;7.026;2023-03-01T10:31:27;7.30;99.90
52471;DHT22;38382;53.160;7.026;2023-03-01T10:34:07;7.60;99.90
52471;DHT22;38382;53.160;7.026;2023-03-01T10:36:33;7.80;99.90
52471;DHT22;38382;53.160;7.026;2023-03-01T10:39:05;8.10;99.90
52471;DHT22;38382;53.160;7.026;2023-03-01T10:42:02;8.30;99.90
52471;DHT22;38382;53.160;7.026;2023-03-01T10:44:41;8.50;99.90
52471;DHT22;38382;53.160;7.026;2023-03-01T10:47:15;8.70;99.90
52471;DHT22;38382;53.160;7.026;2023-03-01T10:50:04;8.80;99.90
52471;DHT22;38382;53.160;7.026;2023-03-01T10:52:35;9.10;99.90
52471;DHT22;38382;53.160;7.026;2023-03-01T10:55:33;9.20;99.90
52471;DHT22;38382;53.160;7.026;2023-03-01T10:58:30;9.40;99.90
52471;DHT22;38382;53.160;7.026;2023-03-01T11:00:58;9.60;99.90
52471;DHT22;38382;53.160;7.026;2023-03-01T11:03:38;9.80;99.90
52471;DHT22;38382;53.160;7.026;2023-03-01T11:08:42;10.00;99.90
52471;DHT22;38382;53.160;7.026;2023-03-01T11:11:33;10.10;99.90
52471;DHT22;38382;53.160;7.026;2023-03-01T11:14:16;10.40;99.90
52471;DHT22;38382;53.160;7.026;2023-03-01T11:16:44;10.60;99.90
52471;DHT22;38382;53.160;7.026;2023-03-01T11:21:59;10.70;99.90
52471;DHT22;38382;53.160;7.026;2023-03-01T11:24:41;10.90;99.90
52471;DHT22;38382;53.160;7.026;2023-03-01T11:30:03;11.20;99.90
52471;DHT22;38382;53.160;7.026;2023-03-01T11:32:43;11.30;99.90
52471;DHT22;38382;53.160;7.026;2023-03-01T11:35:27;11.40;99.90
52471;DHT22;38382;53.160;7.026;2023-03-01T11:38:13;11.50;99.90
52471;DHT22;38382;53.160;7.026;2023-03-01T11:40:46;11.50;99.90
52471;DHT22;38382;53.160;7.026;2023-03-01T11:43:25;11.70;99.90
52471;DHT22;38382;53.160;7.026;2023-03-01T11:51:58;12.20;99.90
52471;DHT22;38382;53.160;7.026;2023-03-01T11:54:34;12.20;99.90
52471;DHT22;38382;53.160;7.026;2023-03-01T12:02:43;12.60;99.90
52471;DHT22;38382;53.160;7.026;2023-03-01T12:05:41;12.70;99.90
52471;DHT22;38382;53.160;7.026;2023-03-01T12:11:22;13.00;99.90
52471;DHT22;38382;53.160;7.026;2023-03-01T12:14:23;13.10;99.90
52471;DHT22;38382;53.160;7.026;2023-03-01T12:27:33;13.70;99.90
52471;DHT22;38382;53.160;7.026;2023-03-01T12:31:29;13.80;99.30
52471;DHT22;38382;53.160;7.026;2023-03-01T12:39:15;14.50;98.30
52471;DHT22;38382;53.160;7.026;2023-03-01T12:50:00;14.70;95.40
52471;DHT22;38382;53.160;7.026;2023-03-01T12:52:52;14.90;96.20
52471;DHT22;38382;53.160;7.026;2023-03-01T12:55:33;14.80;93.70
52471;DHT22;38382;53.160;7.026;2023-03-01T12:58:15;15.10;93.90
52471;DHT22;38382;53.160;7.026;2023-03-01T13:03:58;15.50;91.60
52471;DHT22;38382;53.160;7.026;2023-03-01T13:17:49;14.60;91.00
52471;DHT22;38382;53.160;7.026;2023-03-01T13:20:17;14.80;92.00
52471;DHT22;38382;53.160;7.026;2023-03-01T13:22:45;15.00;91.60
52471;DHT22;38382;53.160;7.026;2023-03-01T13:25:19;15.10;91.00
52471;DHT22;38382;53.160;7.026;2023-03-01T13:27:46;15.40;88.10
52471;DHT22;38382;53.160;7.026;2023-03-01T13:30:39;15.70;90.00
52471;DHT22;38382;53.160;7.026;2023-03-01T13:33:42;15.90;85.40
52471;DHT22;38382;53.160;7.026;2023-03-01T13:36:09;16.30;85.20
52471;DHT22;38382;53.160;7.026;2023-03-01T13:52:34;18.30;74.40
52471;DHT22;38382;53.160;7.026;2023-03-01T13:55:03;18.80;73.60
52471;DHT22;38382;53.160;7.026;2023-03-01T13:57:34;19.20;73.00
52471;DHT22;38382;53.160;7.026;2023-03-01T14:00:01;19.90;71.60
52471;DHT22;38382;53.160;7.026;2023-03-01T14:02:27;20.60;69.00
52471;DHT22;38382;53.160;7.026;2023-03-01T14:04:57;21.10;66.40
52471;DHT22;38382;53.160;7.026;2023-03-01T14:07:24;21.50;64.30
52471;DHT22;38382;53.160;7.026;2023-03-01T14:10:00;22.00;63.10
52471;DHT22;38382;53.160;7.026;2023-03-01T14:15:31;22.30;59.90
52471;DHT22;38382;53.160;7.026;2023-03-01T14:20:39;22.70;58.20
52471;DHT22;38382;53.160;7.026;2023-03-01T14:23:12;22.90;57.20
52471;DHT22;38382;53.160;7.026;2023-03-01T14:25:50;23.00;56.80
52471;DHT22;38382;53.160;7.026;2023-03-01T14:28:24;23.10;56.50
52471;DHT22;38382;53.160;7.026;2023-03-01T14:30:54;23.40;55.40
52471;DHT22;38382;53.160;7.026;2023-03-01T14:33:34;23.20;56.10
52471;DHT22;38382;53.160;7.026;2023-03-01T14:36:07;23.20;54.60
52471;DHT22;38382;53.160;7.026;2023-03-01T14:38:46;22.70;54.80
52471;DHT22;38382;53.160;7.026;2023-03-01T14:41:21;21.40;55.70
52471;DHT22;38382;53.160;7.026;2023-03-01T14:43:55;19.80;58.40
52471;DHT22;38382;53.160;7.026;2023-03-01T14:46:30;18.50;61.40
52471;DHT22;38382;53.160;7.026;2023-03-01T14:49:02;17.50;63.40
52471;DHT22;38382;53.160;7.026;2023-03-01T14:51:29;17.40;64.90
52471;DHT22;38382;53.160;7.026;2023-03-01T14:53:56;17.70;65.00
52471;DHT22;38382;53.160;7.026;2023-03-01T14:56:22;17.60;64.60
52471;DHT22;38382;53.160;7.026;2023-03-01T14:58:52;16.90;65.50
52471;DHT22;38382;53.160;7.026;2023-03-01T15:01:18;16.00;66.40
52471;DHT22;38382;53.160;7.026;2023-03-01T15:03:48;15.30;68.40
52471;DHT22;38382;53.160;7.026;2023-03-01T15:06:18;14.70;69.50
52471;DHT22;38382;53.160;7.026;2023-03-01T15:08:50;14.00;71.50
52471;DHT22;38382;53.160;7.026;2023-03-01T15:11:22;13.50;73.30
52471;DHT22;38382;53.160;7.026;2023-03-01T15:13:51;12.90;75.80
52471;DHT22;38382;53.160;7.026;2023-03-01T15:16:23;12.60;79.30
52471;DHT22;38382;53.160;7.026;2023-03-01T15:18:57;12.30;81.10
52471;DHT22;38382;53.160;7.026;2023-03-01T15:21:25;11.90;83.50
52471;DHT22;38382;53.160;7.026;2023-03-01T15:24:00;11.70;87.20
52471;DHT22;38382;53.160;7.026;2023-03-01T15:26:35;11.50;89.80
52471;DHT22;38382;53.160;7.026;2023-03-01T15:29:02;11.20;90.40
52471;DHT22;38382;53.160;7.026;2023-03-01T15:31:37;11.00;91.20
52471;DHT22;38382;53.160;7.026;2023-03-01T15:34:21;10.80;92.10
52471;DHT22;38382;53.160;7.026;2023-03-01T15:36:47;10.50;93.10
52471;DHT22;38382;53.160;7.026;2023-03-01T15:39:43;10.40;93.90
52471;DHT22;38382;53.160;7.026;2023-03-01T15:42:35;10.30;94.80
52471;DHT22;38382;53.160;7.026;2023-03-01T15:45:21;10.10;95.70
52471;DHT22;38382;53.160;7.026;2023-03-01T15:47:55;10.00;96.80
52471;DHT22;38382;53.160;7.026;2023-03-01T15:52:52;9.70;99.10
52471;DHT22;38382;53.160;7.026;2023-03-01T15:57:49;9.50;99.90
52471;DHT22;38382;53.160;7.026;2023-03-01T16:00:16;9.40;99.90
52471;DHT22;38382;53.160;7.026;2023-03-01T16:02:44;9.30;99.90
52471;DHT22;38382;53.160;7.026;2023-03-01T16:05:26;9.20;99.90
52471;DHT22;38382;53.160;7.026;2023-03-01T16:07:53;9.10;99.90
52471;DHT22;38382;53.160;7.026;2023-03-01T16:10:19;9.00;99.90
52471;DHT22;38382;53.160;7.026;2023-03-01T16:12:45;8.90;99.90
52471;DHT22;38382;53.160;7.026;2023-03-01T16:15:19;8.80;99.90
52471;DHT22;38382;53.160;7.026;2023-03-01T16:17:46;8.70;99.90
52471;DHT22;38382;53.160;7.026;2023-03-01T16:20:12;8.60;99.90
52471;DHT22;38382;53.160;7.026;2023-03-01T16:22:42;9.00;99.90
52471;DHT22;38382;53.160;7.026;2023-03-01T16:25:10;8.40;99.90
52471;DHT22;38382;53.160;7.026;2023-03-01T16:27:35;8.20;99.90
52471;DHT22;38382;53.160;7.026;2023-03-01T16:30:01;8.10;99.90
52471;DHT22;38382;53.160;7.026;2023-03-01T16:32:27;8.00;99.90
52471;DHT22;38382;53.160;7.026;2023-03-01T16:34:53;7.90;99.90
52471;DHT22;38382;53.160;7.026;2023-03-01T16:37:18;7.80;99.90
52471;DHT22;38382;53.160;7.026;2023-03-01T16:39:44;7.70;99.90
52471;DHT22;38382;53.160;7.026;2023-03-01T16:42:10;7.60;99.90
52471;DHT22;38382;53.160;7.026;2023-03-01T16:44:36;7.50;99.90
52471;DHT22;38382;53.160;7.026;2023-03-01T16:47:01;7.40;99.90
52471;DHT22;38382;53.160;7.026;2023-03-01T16:49:27;7.30;99.90
52471;DHT22;38382;53.160;7.026;2023-03-01T16:51:53;7.20;99.90
52471;DHT22;38382;53.160;7.026;2023-03-01T16:54:19;7.10;99.90
52471;DHT22;38382;53.160;7.026;2023-03-01T16:56:45;7.00;99.90
52471;DHT22;38382;53.160;7.026;2023-03-01T16:59:11;6.90;99.90
52471;DHT22;38382;53.160;7.026;2023-03-01T17:01:36;6.80;99.90
52471;DHT22;38382;53.160;7.026;2023-03-01T17:04:09;6.60;99.90
52471;DHT22;38382;53.160;7.026;2023-03-01T17:06:35;6.50;99.90
52471;DHT22;38382;53.160;7.026;2023-03-01T17:09:01;6.30;99.90
52471;DHT22;38382;53.160;7.026;2023-03-01T17:11:27;6.20;99.90
52471;DHT22;38382;53.160;7.026;2023-03-01T17:13:53;6.10;99.90
52471;DHT22;38382;53.160;7.026;2023-03-01T17:16:20;6.10;99.90
52471;DHT22;38382;53.160;7.026;2023-03-01T17:18:47;5.90;99.90
52471;DHT22;38382;53.160;7.026;2023-03-01T17:21:13;5.80;99.90
52471;DHT22;38382;53.160;7.026;2023-03-01T17:23:41;5.90;99.90
52471;DHT22;38382;53.160;7.026;2023-03-01T17:26:07;5.70;99.90
52471;DHT22;38382;53.160;7.026;2023-03-01T17:28:34;5.60;99.90
52471;DHT22;38382;53.160;7.026;2023-03-01T17:31:01;5.60;99.90
52471;DHT22;38382;53.160;7.026;2023-03-01T17:33:27;5.50;99.90
52471;DHT22;38382;53.160;7.026;2023-03-01T17:35:57;5.40;99.90
52471;DHT22;38382;53.160;7.026;2023-03-01T17:38:23;5.40;99.90
52471;DHT22;38382;53.160;7.026;2023-03-01T17:40:48;5.20;99.90
52471;DHT22;38382;53.160;7.026;2023-03-01T17:43:16;5.20;99.90
52471;DHT22;38382;53.160;7.026;2023-03-01T17:45:43;5.10;99.90
52471;DHT22;38382;53.160;7.026;2023-03-01T17:48:12;5.30;99.90
52471;DHT22;38382;53.160;7.026;2023-03-01T17:50:38;4.90;99.90
52471;DHT22;38382;53.160;7.026;2023-03-01T17:53:07;4.90;99.90